NCAR-RAP Real-Time Weather Data

Output produced by METARs form (08 May 2021  15:48 UTC)
found at http://weather.rap.ucar.edu/surface/
 
KRDU 081451Z 26008KT 230V290 10SM FEW100 18/08 A3001 RMK AO2 SLP160 T01830083 58004
KRDU 081351Z 27006KT 10SM FEW100 15/07 A3001 RMK AO2 SLP162 T01500067
KRDU 081251Z 26004KT 10SM FEW070 BKN120 12/08 A3003 RMK AO2 SLP167 T01220083
KRDU 081151Z 00000KT 10SM SCT080 BKN110 BKN140 09/08 A3002 RMK AO2 SLP165 70013 T00940078 10094 20056 53017
KRDU 081051Z 25004KT 10SM BKN110 08/07 A3000 RMK AO2 SLP158 T00780067
KRDU 080951Z 23006KT 10SM BKN100 06/06 A2999 RMK AO2 SLP153 T00610056
KRDU 080851Z 23003KT 10SM FEW120 07/07 A2997 RMK AO2 SLP148 T00720067 55007
KRDU 080751Z 00000KT 10SM CLR 06/06 A2997 RMK AO2 SLP148 T00610061
KRDU 080651Z 00000KT 10SM CLR 07/07 A2998 RMK AO2 SLP152 T00670067
KRDU 080551Z 00000KT 10SM CLR 06/06 A2999 RMK AO2 SLP155 T00610061 10139 20061 50005
KRDU 080451Z 00000KT 10SM CLR 07/07 A3000 RMK AO2 SLP157 T00670067 401780067
KRDU 080351Z 00000KT 10SM CLR 08/08 A2999 RMK AO2 SLP154 T00830078
KRDU 080251Z 00000KT 10SM CLR 09/09 A2998 RMK AO2 SLP150 T00940089 51021
KRDU 080151Z 00000KT 10SM CLR 10/10 A2997 RMK AO2 SLP146 T01000100
KRDU 080051Z 00000KT 10SM FEW100 11/10 A2994 RMK AO2 SLP137 T01110100
KRDU 072351Z 00000KT 10SM FEW070 FEW090 FEW100 14/09 A2992 RMK AO2 SLP129 60001 T01390094 10167 20133 53012
KRDU 072251Z 05006KT 10SM FEW050 BKN085 BKN120 BKN250 15/10 A2989 RMK AO2 RAE2157 TSB2157E12 SLP122 P0000 T01500100
KRDU 072212Z 02006KT 10SM FEW015 SCT050 SCT070 SCT250 16/10 A2989 RMK AO2 RAE2157 TSB2157E12 P0000 T01610100
KRDU 072157Z VRB03KT 10SM TS FEW009 BKN050CB BKN070 BKN250 16/11 A2989 RMK AO2 RAE57 TSB57 FRQ LTGICCG NE TS NE MOV SE P0000 T01610106
KRDU 072151Z 35005KT 10SM -RA FEW015 BKN050CB BKN070 BKN250 15/09 A2989 RMK AO2 RAE00B40 SLP120 CB N-NE MOV SE P0000 T01500094
KRDU 072051Z 28003KT 10SM -RA FEW015 BKN070 BKN085 BKN250 15/09 A2988 RMK AO2 RAB48 SLP117 P0000 60001 T01500089 58005
KRDU 071951Z 04006KT 10SM FEW015 SCT044 SCT065 BKN250 14/11 A2989 RMK AO2 RAE48 SLP119 P0001 T01440111
KRDU 071851Z 34004G14KT 8SM -RA SCT025 BKN050 BKN070 OVC250 13/11 A2991 RMK AO2 RAB01 SLP126 P0000 T01330106
KRDU 071751Z VRB04KT 10SM SCT035 BKN055 BKN080 BKN250 16/07 A2990 RMK AO2 SLP123 60012 T01610072 10178 20111 58010
KRDU 071651Z VRB04KT 10SM SCT032 SCT085 BKN150 BKN250 17/09 A2990 RMK AO2 SLP124 T01670089
KRDU 071551Z 17007KT 10SM SCT020 SCT065 BKN090 BKN160 15/09 A2992 RMK AO2 SLP131 T01500094
KRDU 071451Z 00000KT 10SM FEW018 BKN065 BKN080 BKN160 BKN250 13/10 A2993 RMK AO2 RAE05 SLP133 P0000 60012 T01280100 53004
KRDU 071351Z 13011G17KT 10SM -RA FEW025 SCT060 BKN080 BKN130 BKN250 12/09 A2987 RMK AO2 SLP113 P0003 T01170094
KRDU 071251Z 26005KT 8SM -RA BKN055 BKN075 OVC120 11/11 A2993 RMK AO2 SLP133 P0009 T01110106
KRDU 071151Z 25003KT 4SM RA BR FEW030 BKN050 OVC070 11/11 A2991 RMK AO2 SLP128 P0018 60020 70020 T01110106 10133 20083 53014
KRDU 071051Z 31004KT 5SM -RA BR FEW030 BKN055 BKN075 BKN140 OVC230 11/10 A2989 RMK AO2 RAB22 SLP121 P0002 T01060100
KRDU 070951Z 00000KT 10SM FEW070 SCT090 BKN140 BKN230 11/09 A2989 RMK AO2 SLP119 T01060094
KRDU 070851Z 00000KT 10SM FEW070 SCT110 SCT140 BKN230 09/09 A2987 RMK AO2 SLP114 T00940089 56019
KRDU 070751Z 00000KT 10SM FEW070 SCT100 SCT200 09/08 A2989 RMK AO2 SLP120 T00890083
KRDU 070651Z 00000KT 10SM FEW080 FEW110 FEW200 08/08 A2991 RMK AO2 SLP128 T00830078
KRDU 070551Z 00000KT 10SM FEW080 FEW110 FEW200 09/09 A2993 RMK AO2 SLP133 T00940089 10167 20089 56015
KRDU 070451Z 00000KT 10SM FEW080 FEW110 FEW200 10/08 A2994 RMK AO2 SLP138 T01000083 402000100
KRDU 070351Z 00000KT 10SM FEW080 FEW110 FEW200 11/08 A2995 RMK AO2 SLP141 T01060083
KRDU 070251Z 00000KT 10SM CLR 12/08 A2998 RMK AO2 SLP148 T01170083 50004
KRDU 070151Z 10003KT 10SM CLR 14/08 A2998 RMK AO2 SLP150 T01390083
KRDU 070051Z 08003KT 10SM FEW065 14/09 A2997 RMK AO2 SLP146 T01440094
KRDU 062351Z 08005KT 10SM FEW047 SCT065 16/08 A2996 RMK AO2 SLP144 T01560083 10200 20156 53001
KRDU 062251Z 03003KT 10SM FEW047 SCT065 19/08 A2996 RMK AO2 SLP143 T01890078
KRDU 062151Z 00000KT 10SM FEW047 SCT065 BKN150 19/08 A2995 RMK AO2 SLP142 T01940078
KRDU 062051Z 25004KT 10SM SCT047 SCT065 BKN150 20/09 A2996 RMK AO2 SLP142 T02000089 56027
KRDU 061951Z VRB04KT 10SM SCT047 BKN065 BKN150 19/08 A2997 RMK AO2 SLP147 T01890083
KRDU 061851Z 04005KT 10SM SCT040 BKN065 17/08 A3000 RMK AO2 SLP157 T01720078
KRDU 061751Z 04007KT 10SM BKN038 BKN055 18/08 A3004 RMK AO2 SLP169 T01780078 10178 20139 58012
KRDU 061651Z VRB03KT 10SM BKN038 BKN055 16/07 A3005 RMK AO2 SLP174 T01610072
KRDU 061551Z 06004KT 10SM BKN035 OVC045 16/07 A3007 RMK AO2 SLP180 T01560072